createdAt,value
2019-06-15T00:02:24.354Z,59.90
2019-06-15T00:04:50.655Z,59.90
2019-06-15T00:07:17.009Z,60.40
2019-06-15T00:09:43.339Z,61.10
2019-06-15T00:12:09.673Z,61.00
2019-06-15T00:14:35.978Z,62.00
2019-06-15T00:17:02.331Z,62.00
2019-06-15T00:19:28.661Z,62.20
2019-06-15T00:21:54.992Z,62.90
2019-06-15T00:24:34.605Z,62.90
2019-06-15T00:26:49.412Z,63.10
2019-06-15T00:29:15.724Z,63.20
2019-06-15T00:31:42.054Z,63.50
2019-06-15T00:34:08.387Z,63.70
2019-06-15T00:36:36.554Z,64.20
2019-06-15T00:39:04.839Z,64.40
2019-06-15T00:41:31.200Z,64.80
2019-06-15T00:43:57.514Z,64.50
2019-06-15T00:46:23.825Z,64.70
2019-06-15T00:48:50.471Z,64.90
2019-06-15T00:51:17.183Z,65.00
2019-06-15T00:53:43.536Z,64.70
2019-06-15T00:56:09.865Z,65.10
2019-06-15T00:58:36.194Z,65.30
2019-06-15T01:01:03.168Z,65.50
2019-06-15T01:03:29.485Z,65.40
2019-06-15T01:05:55.801Z,65.50
2019-06-15T01:08:22.130Z,65.50
2019-06-15T01:10:48.505Z,65.40
2019-06-15T01:13:14.895Z,65.40
2019-06-15T01:15:41.195Z,65.70
2019-06-15T01:18:07.556Z,66.40
2019-06-15T01:20:33.886Z,65.80
2019-06-15T01:23:00.215Z,65.70
2019-06-15T01:25:26.491Z,65.80
2019-06-15T01:27:52.880Z,65.80
2019-06-15T01:30:19.921Z,65.70
2019-06-15T01:32:46.342Z,66.10
2019-06-15T01:35:13.447Z,66.10
2019-06-15T01:37:39.836Z,66.40
2019-06-15T01:40:07.299Z,66.30
2019-06-15T01:42:33.725Z,66.50
2019-06-15T01:44:59.995Z,66.90
2019-06-15T01:47:26.302Z,66.70
2019-06-15T01:49:52.618Z,66.80
2019-06-15T01:52:18.892Z,67.10
2019-06-15T01:54:45.173Z,67.10
2019-06-15T01:57:11.507Z,67.30
2019-06-15T01:59:37.937Z,68.00
2019-06-15T02:02:04.575Z,68.50
2019-06-15T02:04:30.801Z,69.20
2019-06-15T02:06:57.136Z,69.90
2019-06-15T02:09:23.413Z,71.00
2019-06-15T02:11:49.895Z,71.80
2019-06-15T02:14:16.231Z,72.40
2019-06-15T02:16:42.671Z,73.50
2019-06-15T02:19:09.001Z,73.90
2019-06-15T02:21:35.261Z,74.20
2019-06-15T02:24:01.653Z,74.90
2019-06-15T02:26:27.986Z,75.10
2019-06-15T02:28:54.314Z,75.90
2019-06-15T02:31:20.644Z,76.40
2019-06-15T02:33:46.972Z,77.50
2019-06-15T02:36:13.237Z,78.10
2019-06-15T02:38:39.750Z,78.80
2019-06-15T02:41:06.169Z,79.50
2019-06-15T02:43:32.602Z,79.80
2019-06-15T02:45:59.048Z,80.00
2019-06-15T02:48:25.466Z,80.40
2019-06-15T02:50:51.900Z,80.50
2019-06-15T02:53:18.229Z,80.90
2019-06-15T02:55:50.651Z,80.80
2019-06-15T02:58:12.645Z,81.10
2019-06-15T03:01:00.924Z,81.30
2019-06-15T03:03:27.315Z,81.40
2019-06-15T03:05:53.725Z,81.40
2019-06-15T03:08:21.142Z,81.90
2019-06-15T03:10:47.630Z,82.40
2019-06-15T03:13:14.063Z,82.50
2019-06-15T03:15:40.400Z,82.90
2019-06-15T03:18:06.623Z,83.30
2019-06-15T03:20:32.954Z,83.30
2019-06-15T03:22:59.283Z,83.40
2019-06-15T03:25:25.613Z,83.90
2019-06-15T03:27:51.944Z,84.50
2019-06-15T03:30:20.939Z,84.70
2019-06-15T03:32:47.239Z,86.20
2019-06-15T03:35:14.316Z,86.00
2019-06-15T03:37:40.528Z,86.50
2019-06-15T03:40:06.961Z,86.50
2019-06-15T03:42:33.626Z,86.90
2019-06-15T03:44:59.942Z,87.30
2019-06-15T03:47:26.273Z,87.50
2019-06-15T03:49:52.603Z,87.60
2019-06-15T03:52:18.935Z,87.80
2019-06-15T03:54:45.265Z,88.10
2019-06-15T03:57:11.598Z,88.20
2019-06-15T03:59:37.927Z,88.20
2019-06-15T04:02:04.360Z,88.20
2019-06-15T04:04:30.669Z,88.10
2019-06-15T04:06:57.019Z,87.90
2019-06-15T04:09:23.587Z,87.80
2019-06-15T04:11:49.987Z,87.90
2019-06-15T04:14:16.327Z,88.00
2019-06-15T04:16:42.593Z,88.20
2019-06-15T04:19:08.980Z,88.30
2019-06-15T04:21:35.309Z,88.40
2019-06-15T04:24:01.650Z,88.50
2019-06-15T04:26:35.993Z,88.80
2019-06-15T04:28:56.043Z,88.90
2019-06-15T04:31:22.515Z,89.10
2019-06-15T04:33:48.913Z,89.10
2019-06-15T04:36:15.189Z,89.20
2019-06-15T04:38:41.569Z,89.20
2019-06-15T04:41:07.843Z,89.10
2019-06-15T04:43:34.536Z,89.40
2019-06-15T04:46:00.868Z,89.30
2019-06-15T04:48:27.196Z,89.20
2019-06-15T04:50:53.446Z,89.60
2019-06-15T04:53:20.062Z,89.70
2019-06-15T04:55:46.392Z,89.80
2019-06-15T04:58:12.724Z,90.00
2019-06-15T05:00:40.719Z,90.00
2019-06-15T05:03:06.982Z,90.10
2019-06-15T05:05:33.274Z,90.10
2019-06-15T05:07:59.992Z,90.10
2019-06-15T05:10:26.735Z,90.00
2019-06-15T05:12:52.977Z,90.10
2019-06-15T05:15:20.071Z,90.10
2019-06-15T05:17:46.484Z,90.10
2019-06-15T05:20:13.384Z,90.10
2019-06-15T05:22:39.714Z,90.10
2019-06-15T05:25:06.657Z,90.10
2019-06-15T05:27:33.299Z,90.00
2019-06-15T05:29:59.582Z,90.00
2019-06-15T05:32:26.176Z,89.90
2019-06-15T05:34:52.494Z,90.00
2019-06-15T05:37:18.771Z,90.10
2019-06-15T05:39:45.069Z,90.10
2019-06-15T05:42:11.381Z,90.20
2019-06-15T05:44:37.723Z,90.30
2019-06-15T05:47:04.259Z,90.50
2019-06-15T05:49:30.577Z,90.60
2019-06-15T05:51:56.937Z,90.80
2019-06-15T05:54:24.577Z,91.00
2019-06-15T05:56:50.899Z,91.20
2019-06-15T05:59:17.151Z,91.60
2019-06-15T06:01:43.564Z,91.30
2019-06-15T06:04:11.235Z,91.40
2019-06-15T06:06:37.554Z,91.40
2019-06-15T06:09:06.033Z,91.20
2019-06-15T06:11:32.267Z,91.20
2019-06-15T06:13:58.592Z,91.10
2019-06-15T06:16:24.924Z,91.20
2019-06-15T06:18:51.177Z,91.30
2019-06-15T06:21:17.688Z,91.30
2019-06-15T06:23:44.017Z,91.30
2019-06-15T06:26:10.383Z,91.40
2019-06-15T06:28:36.781Z,91.40
2019-06-15T06:31:03.315Z,91.40
2019-06-15T06:33:29.653Z,91.50
2019-06-15T06:35:55.867Z,91.50
2019-06-15T06:38:22.205Z,91.60
2019-06-15T06:40:48.558Z,91.60
2019-06-15T06:43:14.969Z,91.50
2019-06-15T06:45:42.467Z,91.60
2019-06-15T06:48:08.770Z,91.50
2019-06-15T06:50:35.074Z,91.30
2019-06-15T06:53:01.415Z,91.30
2019-06-15T06:55:27.747Z,91.30
2019-06-15T06:57:57.163Z,91.00
2019-06-15T07:00:23.167Z,90.90
2019-06-15T07:02:49.502Z,90.90
2019-06-15T07:05:15.833Z,90.70
2019-06-15T07:07:42.170Z,90.60
2019-06-15T07:10:09.156Z,90.70
2019-06-15T07:12:36.462Z,91.10
2019-06-15T07:15:04.801Z,91.20
2019-06-15T07:17:31.276Z,91.20
2019-06-15T07:19:57.706Z,91.30
2019-06-15T07:22:23.995Z,91.00
2019-06-15T07:24:50.255Z,90.60
2019-06-15T07:27:16.583Z,90.40
2019-06-15T07:29:42.890Z,90.50
2019-06-15T07:32:10.139Z,90.40
2019-06-15T07:34:36.408Z,90.20
2019-06-15T07:37:02.737Z,90.00
2019-06-15T07:39:29.036Z,88.80
2019-06-15T07:41:55.396Z,88.50
2019-06-15T07:44:21.660Z,88.00
2019-06-15T07:46:48.075Z,88.60
2019-06-15T07:49:14.371Z,88.50
2019-06-15T07:51:40.821Z,89.10
2019-06-15T07:54:07.154Z,89.40
2019-06-15T07:56:33.358Z,88.60
2019-06-15T07:58:59.714Z,88.20
2019-06-15T08:01:26.147Z,88.20
2019-06-15T08:03:52.665Z,89.50
2019-06-15T08:06:18.953Z,90.60
2019-06-15T08:08:45.349Z,91.30
2019-06-15T08:11:11.775Z,91.70
2019-06-15T08:13:38.105Z,91.80
2019-06-15T08:16:04.433Z,91.70
2019-06-15T08:18:30.764Z,91.90
2019-06-15T08:20:57.158Z,92.10
2019-06-15T08:23:23.525Z,92.20
2019-06-15T08:25:49.857Z,91.40
2019-06-15T08:28:16.187Z,90.70
2019-06-15T08:30:43.220Z,90.10
2019-06-15T08:33:10.216Z,90.40
2019-06-15T08:35:36.612Z,90.60
2019-06-15T08:38:03.604Z,91.00
2019-06-15T08:40:29.889Z,90.30
2019-06-15T08:42:56.218Z,90.40
2019-06-15T08:45:22.551Z,90.20
2019-06-15T08:47:48.760Z,89.60
2019-06-15T08:50:15.221Z,89.00
2019-06-15T08:52:41.475Z,88.90
2019-06-15T08:55:07.862Z,89.20
2019-06-15T08:57:36.364Z,89.10
2019-06-15T09:00:07.758Z,89.10
2019-06-15T09:02:34.185Z,87.40
2019-06-15T09:05:00.484Z,85.50
2019-06-15T09:07:26.782Z,83.90
2019-06-15T09:09:53.097Z,81.90
2019-06-15T09:12:19.778Z,81.00
2019-06-15T09:14:46.091Z,80.40
2019-06-15T09:17:12.743Z,79.80
2019-06-15T09:19:39.162Z,80.80
2019-06-15T09:22:05.440Z,81.10
2019-06-15T09:24:31.822Z,81.50
2019-06-15T09:26:58.153Z,81.00
2019-06-15T09:29:24.482Z,80.80
2019-06-15T09:31:50.761Z,81.60
2019-06-15T09:34:19.293Z,80.80
2019-06-15T09:36:45.626Z,78.80
2019-06-15T09:39:14.528Z,79.30
2019-06-15T09:41:39.968Z,79.50
2019-06-15T09:44:06.665Z,78.80
2019-06-15T09:46:33.097Z,78.90
2019-06-15T09:48:59.839Z,81.00
2019-06-15T09:51:26.157Z,81.40
2019-06-15T09:53:52.498Z,79.50
2019-06-15T09:56:18.728Z,79.40
2019-06-15T09:58:45.057Z,78.50
2019-06-15T10:01:11.621Z,76.70
2019-06-15T10:03:37.925Z,77.70
2019-06-15T10:06:05.664Z,78.10
2019-06-15T10:08:32.252Z,77.40
2019-06-15T10:10:58.552Z,74.50
2019-06-15T10:13:24.783Z,76.50
2019-06-15T10:15:51.112Z,77.00
2019-06-15T10:18:17.482Z,76.30
2019-06-15T10:20:43.876Z,76.20
2019-06-15T10:23:10.252Z,72.90
2019-06-15T10:25:36.652Z,73.10
2019-06-15T10:28:03.080Z,75.00
2019-06-15T10:30:29.348Z,74.00
2019-06-15T10:32:55.736Z,75.00
2019-06-15T10:35:22.067Z,73.80
2019-06-15T10:37:48.499Z,75.00
2019-06-15T10:40:15.851Z,74.00
2019-06-15T10:42:42.166Z,71.50
2019-06-15T10:45:09.331Z,71.90
2019-06-15T10:47:35.548Z,71.90
2019-06-15T10:50:07.202Z,70.80
2019-06-15T10:52:33.592Z,71.30
2019-06-15T10:54:59.909Z,71.80
2019-06-15T10:57:26.210Z,75.00
2019-06-15T10:59:57.345Z,77.50
2019-06-15T11:02:21.026Z,78.40
2019-06-15T11:04:47.361Z,76.90
2019-06-15T11:07:13.636Z,77.20
2019-06-15T11:09:40.109Z,76.10
2019-06-15T11:12:06.353Z,74.90
2019-06-15T11:14:32.668Z,73.10
2019-06-15T11:17:00.226Z,73.50
2019-06-15T11:19:26.557Z,73.60
2019-06-15T11:21:52.877Z,75.50
2019-06-15T11:24:19.174Z,75.50
2019-06-15T11:26:45.479Z,73.40
2019-06-15T11:29:11.776Z,72.50
2019-06-15T11:31:38.208Z,73.70
2019-06-15T11:34:04.539Z,74.10
2019-06-15T11:36:31.142Z,73.90
2019-06-15T11:38:57.547Z,73.20
2019-06-15T11:41:23.939Z,73.10
2019-06-15T11:43:50.270Z,72.10
2019-06-15T11:46:16.537Z,72.90
2019-06-15T11:48:42.825Z,72.00
2019-06-15T11:51:09.156Z,71.10
2019-06-15T11:53:35.709Z,71.20
2019-06-15T11:56:02.025Z,71.00
2019-06-15T11:58:28.294Z,70.60
2019-06-15T12:00:54.685Z,71.40
2019-06-15T12:03:20.972Z,71.50
2019-06-15T12:05:47.449Z,68.30
2019-06-15T12:08:13.896Z,67.20
2019-06-15T12:10:40.175Z,67.50
2019-06-15T12:13:07.935Z,69.80
2019-06-15T12:15:34.297Z,69.40
2019-06-15T12:18:00.842Z,71.90
2019-06-15T12:20:27.106Z,73.40
2019-06-15T12:22:53.403Z,74.00
2019-06-15T12:25:19.780Z,73.40
2019-06-15T12:27:46.163Z,74.00
2019-06-15T12:30:13.098Z,73.20
2019-06-15T12:32:39.414Z,71.80
2019-06-15T12:35:07.510Z,72.20
2019-06-15T12:37:34.148Z,68.20
2019-06-15T12:40:00.478Z,68.90
2019-06-15T12:42:26.808Z,69.20
2019-06-15T12:44:53.139Z,71.40
2019-06-15T12:47:19.682Z,71.70
2019-06-15T12:49:46.324Z,69.90
2019-06-15T12:52:12.744Z,67.00
2019-06-15T12:54:39.026Z,67.00
2019-06-15T12:57:05.629Z,68.80
2019-06-15T12:59:31.926Z,67.60
2019-06-15T13:01:58.401Z,67.00
2019-06-15T13:04:24.705Z,67.10
2019-06-15T13:06:51.362Z,66.00
2019-06-15T13:09:17.696Z,65.70
2019-06-15T13:11:43.986Z,62.10
2019-06-15T13:14:10.331Z,61.70
2019-06-15T13:16:39.642Z,63.50
2019-06-15T13:19:04.695Z,64.60
2019-06-15T13:21:30.994Z,65.00
2019-06-15T13:23:57.393Z,65.30
2019-06-15T13:26:23.831Z,66.80
2019-06-15T13:28:51.217Z,68.40
2019-06-15T13:31:18.630Z,70.10
2019-06-15T13:33:45.070Z,72.10
2019-06-15T13:36:12.512Z,74.80
2019-06-15T13:38:41.987Z,77.70
2019-06-15T13:41:08.362Z,78.40
2019-06-15T13:43:34.591Z,79.80
2019-06-15T13:46:00.866Z,78.60
2019-06-15T13:48:27.254Z,78.40
2019-06-15T13:50:53.582Z,78.80
2019-06-15T13:53:19.803Z,77.40
2019-06-15T13:55:46.092Z,75.60
2019-06-15T13:58:12.473Z,75.80
2019-06-15T14:00:39.059Z,75.80
2019-06-15T14:03:05.661Z,74.80
2019-06-15T14:05:31.922Z,75.80
2019-06-15T14:07:58.231Z,74.60
2019-06-15T14:10:24.640Z,74.90
2019-06-15T14:12:50.967Z,74.50
2019-06-15T14:15:17.430Z,74.90
2019-06-15T14:17:43.830Z,72.20
2019-06-15T14:20:10.526Z,70.70
2019-06-15T14:22:36.909Z,70.00
2019-06-15T14:25:05.484Z,69.60
2019-06-15T14:27:31.718Z,70.10
2019-06-15T14:29:58.177Z,70.40
2019-06-15T14:32:24.582Z,70.10
2019-06-15T14:34:50.909Z,68.40
2019-06-15T14:37:17.342Z,66.20
2019-06-15T14:39:45.308Z,67.40
2019-06-15T14:42:11.538Z,69.10
2019-06-15T14:44:37.870Z,68.90
2019-06-15T14:47:04.421Z,69.80
2019-06-15T14:49:30.838Z,68.80
2019-06-15T14:51:57.884Z,69.20
2019-06-15T14:54:26.383Z,68.90
2019-06-15T14:56:52.495Z,67.90
2019-06-15T14:59:18.818Z,67.60
2019-06-15T15:01:47.038Z,67.30
2019-06-15T15:04:13.218Z,67.10
2019-06-15T15:06:39.653Z,66.20
2019-06-15T15:09:06.555Z,65.70
2019-06-15T15:11:33.134Z,65.30
2019-06-15T15:13:59.462Z,65.60
2019-06-15T15:18:52.643Z,63.50
2019-06-15T15:21:18.867Z,63.40
2019-06-15T15:23:46.399Z,65.30
2019-06-15T15:26:12.964Z,65.20
2019-06-15T15:28:39.288Z,64.30
2019-06-15T15:31:06.434Z,63.30
2019-06-15T15:33:33.289Z,63.10
2019-06-15T15:35:59.760Z,63.40
2019-06-15T15:38:26.043Z,64.00
2019-06-15T15:40:52.591Z,64.20
2019-06-15T15:43:19.058Z,63.00
2019-06-15T15:45:46.059Z,62.90
2019-06-15T15:48:12.462Z,62.10
2019-06-15T15:50:38.821Z,61.90
2019-06-15T15:53:05.157Z,61.20
2019-06-15T15:55:31.482Z,62.10
2019-06-15T15:57:57.813Z,62.60
2019-06-15T16:00:27.877Z,61.20
2019-06-15T16:02:56.512Z,60.40
2019-06-15T16:05:22.337Z,60.60
2019-06-15T16:07:48.664Z,59.40
2019-06-15T16:10:16.054Z,59.10
2019-06-15T16:12:42.656Z,59.10
2019-06-15T16:15:09.435Z,57.80
2019-06-15T16:17:37.312Z,57.00
2019-06-15T16:20:07.541Z,57.40
2019-06-15T16:22:33.890Z,57.80
2019-06-15T16:25:01.163Z,57.80
2019-06-15T16:27:27.452Z,58.30
2019-06-15T16:29:53.831Z,59.00
2019-06-15T16:32:20.161Z,58.60
2019-06-15T16:34:47.529Z,57.80
2019-06-15T16:37:13.899Z,58.30
2019-06-15T16:39:40.313Z,57.70
2019-06-15T16:42:06.661Z,57.00
2019-06-15T16:44:32.945Z,57.80
2019-06-15T16:46:59.274Z,58.90
2019-06-15T16:49:26.814Z,58.40
2019-06-15T16:51:53.481Z,57.50
2019-06-15T16:54:19.741Z,57.60
2019-06-15T16:56:46.623Z,58.30
2019-06-15T16:59:13.022Z,58.50
2019-06-15T17:01:39.408Z,58.10
2019-06-15T17:04:06.157Z,57.60
2019-06-15T17:06:32.678Z,58.00
2019-06-15T17:08:58.914Z,58.10
2019-06-15T17:11:26.327Z,58.50
2019-06-15T17:13:53.119Z,58.70
2019-06-15T17:16:19.421Z,59.20
2019-06-15T17:18:47.133Z,59.70
2019-06-15T17:21:16.989Z,60.50
2019-06-15T17:23:41.659Z,61.00
2019-06-15T17:26:08.032Z,62.10
2019-06-15T17:28:36.735Z,61.20
2019-06-15T17:31:02.434Z,60.80
2019-06-15T17:33:37.459Z,61.90
2019-06-15T17:36:02.821Z,62.30
2019-06-15T17:38:27.133Z,62.40
2019-06-15T17:40:53.077Z,61.10
2019-06-15T17:43:19.411Z,60.00
2019-06-15T17:45:46.887Z,58.70
2019-06-15T17:48:13.413Z,58.70
2019-06-15T17:50:42.396Z,58.10
2019-06-15T17:53:08.726Z,57.30
2019-06-15T17:55:36.728Z,57.10
2019-06-15T17:58:06.520Z,56.60
2019-06-15T18:00:46.692Z,56.20
2019-06-15T18:03:11.904Z,56.30
2019-06-15T18:05:38.433Z,56.40
2019-06-15T18:08:06.735Z,56.80
2019-06-15T18:10:32.918Z,57.40
2019-06-15T18:12:59.347Z,57.60
2019-06-15T18:15:26.542Z,57.40
2019-06-15T18:17:53.029Z,57.30
2019-06-15T18:20:21.322Z,57.60
2019-06-15T18:22:47.947Z,57.20
2019-06-15T18:25:14.370Z,56.50
2019-06-15T18:27:40.757Z,56.10
2019-06-15T18:30:07.448Z,54.40
2019-06-15T18:32:37.858Z,54.00
2019-06-15T18:35:06.112Z,54.20
2019-06-15T18:37:33.823Z,54.10
2019-06-15T18:40:00.133Z,54.70
2019-06-15T18:42:26.425Z,53.90
2019-06-15T18:44:53.101Z,54.50
2019-06-15T18:47:19.431Z,55.10
2019-06-15T18:49:47.389Z,56.00
2019-06-15T18:52:13.840Z,57.00
2019-06-15T18:54:40.157Z,57.90
2019-06-15T18:57:07.407Z,58.10
2019-06-15T18:59:36.421Z,57.90
2019-06-15T19:02:02.160Z,59.80
2019-06-15T19:04:31.096Z,64.70
2019-06-15T19:06:56.599Z,65.20
2019-06-15T19:09:22.882Z,69.00
2019-06-15T19:11:49.449Z,70.30
2019-06-15T19:14:16.583Z,72.10
2019-06-15T19:16:43.042Z,73.70
2019-06-15T19:19:09.401Z,74.70
2019-06-15T19:21:35.737Z,75.50
2019-06-15T19:24:02.071Z,76.20
2019-06-15T19:26:28.616Z,76.80
2019-06-15T19:28:55.991Z,77.20
2019-06-15T19:31:22.595Z,78.10
2019-06-15T19:33:49.151Z,79.20
2019-06-15T19:36:15.563Z,79.50
2019-06-15T19:38:41.859Z,80.20
2019-06-15T19:41:08.224Z,80.90
2019-06-15T19:43:36.288Z,81.20
2019-06-15T19:46:02.835Z,81.50
2019-06-15T19:48:29.166Z,82.20
2019-06-15T19:50:56.586Z,82.60
2019-06-15T19:53:27.158Z,83.10
2019-06-15T19:55:51.298Z,83.80
2019-06-15T19:58:17.864Z,84.60
2019-06-15T20:00:46.542Z,84.90
2019-06-15T20:03:12.431Z,85.30
2019-06-15T20:05:39.016Z,85.40
2019-06-15T20:08:07.312Z,85.50
2019-06-15T20:10:36.723Z,85.50
2019-06-15T20:13:01.622Z,85.60
2019-06-15T20:15:28.056Z,85.60
2019-06-15T20:17:56.820Z,85.30
2019-06-15T20:20:22.733Z,85.10
2019-06-15T20:22:49.157Z,85.20
2019-06-15T20:25:16.055Z,85.20
2019-06-15T20:27:42.448Z,85.40
2019-06-15T20:30:09.440Z,85.40
2019-06-15T20:32:36.900Z,85.60
2019-06-15T20:35:16.615Z,85.70
2019-06-15T20:37:36.939Z,86.00
2019-06-15T20:40:06.576Z,86.00
2019-06-15T20:42:32.847Z,87.00
2019-06-15T20:44:59.234Z,87.60
2019-06-15T20:47:26.422Z,87.30
2019-06-15T20:49:53.237Z,87.90
2019-06-15T20:52:19.558Z,88.10
2019-06-15T20:54:46.434Z,88.30
2019-06-15T20:57:13.140Z,88.60
2019-06-15T20:59:39.789Z,88.40
2019-06-15T21:02:06.745Z,88.20
2019-06-15T21:04:33.373Z,87.80
2019-06-15T21:06:59.688Z,87.90
2019-06-15T21:09:27.606Z,88.00
2019-06-15T21:11:54.022Z,87.80
2019-06-15T21:14:20.533Z,87.60
2019-06-15T21:16:46.977Z,87.30
2019-06-15T21:19:13.389Z,87.90
2019-06-15T21:21:39.720Z,87.00
2019-06-15T21:24:06.487Z,87.10
2019-06-15T21:26:33.325Z,87.60
2019-06-15T21:28:59.951Z,87.20
2019-06-15T21:31:26.390Z,87.00
2019-06-15T21:33:53.011Z,86.50
2019-06-15T21:36:19.443Z,86.60
2019-06-15T21:38:46.839Z,86.60
2019-06-15T21:41:13.235Z,86.70
2019-06-15T21:43:39.559Z,86.50
2019-06-15T21:46:06.495Z,85.90
2019-06-15T21:48:33.146Z,85.50
2019-06-15T21:50:59.791Z,85.50
2019-06-15T21:53:26.710Z,85.80
2019-06-15T21:55:53.158Z,86.20
2019-06-15T21:58:19.404Z,86.50
2019-06-15T22:01:09.573Z,86.80
2019-06-15T22:03:36.823Z,87.00
2019-06-15T22:06:05.994Z,87.30
2019-06-15T22:08:31.435Z,87.80
2019-06-15T22:10:57.682Z,88.00
2019-06-15T22:13:26.417Z,88.60
2019-06-15T22:15:52.084Z,89.00
2019-06-15T22:18:18.495Z,89.60
2019-06-15T22:20:47.023Z,90.00
2019-06-15T22:23:13.020Z,90.20
2019-06-15T22:25:39.439Z,90.10
2019-06-15T22:28:06.934Z,90.10
2019-06-15T22:30:33.427Z,90.20
2019-06-15T22:32:59.722Z,90.20
2019-06-15T22:35:27.042Z,90.20
2019-06-15T22:37:53.406Z,90.00
2019-06-15T22:40:20.494Z,89.90
2019-06-15T22:42:47.208Z,89.70
2019-06-15T22:45:13.746Z,89.50
2019-06-15T22:47:40.094Z,89.50
2019-06-15T22:50:07.154Z,90.00
2019-06-15T22:52:36.229Z,89.20
2019-06-15T22:55:01.777Z,88.70
2019-06-15T22:57:28.085Z,88.60
2019-06-15T22:59:56.627Z,88.60
2019-06-15T23:02:22.588Z,89.10
2019-06-15T23:04:48.796Z,87.80
2019-06-15T23:07:16.121Z,87.30
2019-06-15T23:09:42.596Z,87.10
2019-06-15T23:12:09.028Z,87.00
2019-06-15T23:14:37.288Z,87.00
2019-06-15T23:17:03.738Z,87.20
2019-06-15T23:19:30.068Z,86.90
2019-06-15T23:21:57.278Z,86.80
2019-06-15T23:24:23.754Z,86.80
2019-06-15T23:26:50.085Z,86.90
2019-06-15T23:29:16.604Z,86.70
2019-06-15T23:31:43.061Z,86.70
2019-06-15T23:34:09.381Z,86.80
2019-06-15T23:36:56.191Z,86.90
2019-06-15T23:39:11.771Z,86.80
2019-06-15T23:41:38.031Z,86.90
2019-06-15T23:44:04.467Z,87.10
2019-06-15T23:46:30.919Z,87.40
2019-06-15T23:48:57.297Z,87.60
2019-06-15T23:51:26.239Z,87.80
2019-06-15T23:53:51.644Z,87.90
2019-06-15T23:56:17.939Z,87.80
2019-06-15T23:58:46.210Z,87.60
